sensor_id;sensor_type;location;lat;lon;timestamp;pressure;altitude;pressure_sealevel;temperature;humidity
80405;BME280;69733;48.744;9.176;2023-12-29T00:00:29;96887.00;;;7.29;83.92
80405;BME280;69733;48.744;9.176;2023-12-29T00:02:54;96881.50;;;7.30;83.79
80405;BME280;69733;48.744;9.176;2023-12-29T00:05:19;96879.47;;;7.32;83.56
80405;BME280;69733;48.744;9.176;2023-12-29T00:07:45;96876.59;;;7.34;83.40
80405;BME280;69733;48.744;9.176;2023-12-29T00:10:10;96868.47;;;7.35;83.65
80405;BME280;69733;48.744;9.176;2023-12-29T00:12:35;96877.22;;;7.36;83.74
80405;BME280;69733;48.744;9.176;2023-12-29T00:15:01;96873.78;;;7.35;83.64
80405;BME280;69733;48.744;9.176;2023-12-29T00:17:26;96875.81;;;7.40;83.78
80405;BME280;69733;48.744;9.176;2023-12-29T00:19:52;96871.09;;;7.42;83.58
80405;BME280;69733;48.744;9.176;2023-12-29T00:22:19;96879.88;;;7.42;83.64
80405;BME280;69733;48.744;9.176;2023-12-29T00:24:44;96873.34;;;7.45;83.48
80405;BME280;69733;48.744;9.176;2023-12-29T00:27:10;96863.75;;;7.44;83.79
80405;BME280;69733;48.744;9.176;2023-12-29T00:29:35;96862.97;;;7.43;83.87
80405;BME280;69733;48.744;9.176;2023-12-29T00:32:00;96872.53;;;7.44;83.67
80405;BME280;69733;48.744;9.176;2023-12-29T00:34:27;96863.97;;;7.42;83.90
80405;BME280;69733;48.744;9.176;2023-12-29T00:36:52;96862.75;;;7.38;84.05
80405;BME280;69733;48.744;9.176;2023-12-29T00:39:18;96859.91;;;7.33;84.45
80405;BME280;69733;48.744;9.176;2023-12-29T00:41:43;96862.97;;;7.30;84.45
80405;BME280;69733;48.744;9.176;2023-12-29T00:44:08;96865.84;;;7.29;84.29
80405;BME280;69733;48.744;9.176;2023-12-29T00:46:34;96864.00;;;7.29;84.17
80405;BME280;69733;48.744;9.176;2023-12-29T00:48:59;96856.06;;;7.36;83.94
80405;BME280;69733;48.744;9.176;2023-12-29T00:51:24;96868.06;;;7.38;83.99
80405;BME280;69733;48.744;9.176;2023-12-29T00:53:50;96859.09;;;7.39;84.15
80405;BME280;69733;48.744;9.176;2023-12-29T00:56:15;96848.09;;;7.42;84.02
80405;BME280;69733;48.744;9.176;2023-12-29T00:58:40;96852.38;;;7.43;83.91
80405;BME280;69733;48.744;9.176;2023-12-29T01:01:07;96861.34;;;7.42;83.77
80405;BME280;69733;48.744;9.176;2023-12-29T01:03:33;96870.91;;;7.43;84.25
80405;BME280;69733;48.744;9.176;2023-12-29T01:05:59;96877.63;;;7.46;84.18
80405;BME280;69733;48.744;9.176;2023-12-29T01:08:24;96875.56;;;7.48;84.09
80405;BME280;69733;48.744;9.176;2023-12-29T01:10:50;96877.00;;;7.50;83.92
80405;BME280;69733;48.744;9.176;2023-12-29T01:13:15;96880.25;;;7.53;83.99
80405;BME280;69733;48.744;9.176;2023-12-29T01:15:40;96882.69;;;7.54;83.66
80405;BME280;69733;48.744;9.176;2023-12-29T01:18:09;96877.00;;;7.57;83.74
80405;BME280;69733;48.744;9.176;2023-12-29T01:20:34;96871.88;;;7.56;83.88
80405;BME280;69733;48.744;9.176;2023-12-29T01:23:00;96874.34;;;7.57;84.10
80405;BME280;69733;48.744;9.176;2023-12-29T01:25:25;96863.94;;;7.56;83.39
80405;BME280;69733;48.744;9.176;2023-12-29T01:27:50;96866.41;;;7.57;84.22
80405;BME280;69733;48.744;9.176;2023-12-29T01:30:16;96870.47;;;7.53;83.97
80405;BME280;69733;48.744;9.176;2023-12-29T01:32:41;96873.75;;;7.48;84.42
80405;BME280;69733;48.744;9.176;2023-12-29T01:35:07;96875.97;;;7.45;84.36
80405;BME280;69733;48.744;9.176;2023-12-29T01:37:32;96876.22;;;7.43;84.39
80405;BME280;69733;48.744;9.176;2023-12-29T01:39:57;96875.56;;;7.48;84.22
80405;BME280;69733;48.744;9.176;2023-12-29T01:42:23;96874.13;;;7.52;83.94
80405;BME280;69733;48.744;9.176;2023-12-29T01:44:48;96878.59;;;7.58;83.93
80405;BME280;69733;48.744;9.176;2023-12-29T01:47:19;96871.47;;;7.59;83.84
80405;BME280;69733;48.744;9.176;2023-12-29T01:49:46;96872.91;;;7.61;83.90
80405;BME280;69733;48.744;9.176;2023-12-29T01:52:14;96864.75;;;7.63;83.80
80405;BME280;69733;48.744;9.176;2023-12-29T01:54:40;96861.47;;;7.67;84.07
80405;BME280;69733;48.744;9.176;2023-12-29T01:57:08;96862.28;;;7.68;83.87
80405;BME280;69733;48.744;9.176;2023-12-29T01:59:34;96869.19;;;7.69;83.86
80405;BME280;69733;48.744;9.176;2023-12-29T02:02:01;96854.13;;;7.69;83.97
80405;BME280;69733;48.744;9.176;2023-12-29T02:04:27;96846.81;;;7.71;83.99
80405;BME280;69733;48.744;9.176;2023-12-29T02:06:54;96848.00;;;7.69;83.80
80405;BME280;69733;48.744;9.176;2023-12-29T02:09:19;96855.16;;;7.68;84.01
80405;BME280;69733;48.744;9.176;2023-12-29T02:11:45;96846.19;;;7.69;83.90
80405;BME280;69733;48.744;9.176;2023-12-29T02:14:11;96852.91;;;7.65;84.38
80405;BME280;69733;48.744;9.176;2023-12-29T02:16:43;96843.38;;;7.64;84.09
80405;BME280;69733;48.744;9.176;2023-12-29T02:19:53;96840.50;;;7.66;84.03
80405;BME280;69733;48.744;9.176;2023-12-29T02:22:12;96845.38;;;7.69;84.11
80405;BME280;69733;48.744;9.176;2023-12-29T02:24:38;96837.63;;;7.74;83.95
80405;BME280;69733;48.744;9.176;2023-12-29T02:27:12;96840.66;;;7.77;83.73
80405;BME280;69733;48.744;9.176;2023-12-29T02:29:43;96832.53;;;7.79;83.96
80405;BME280;69733;48.744;9.176;2023-12-29T02:32:11;96828.03;;;7.79;83.68
80405;BME280;69733;48.744;9.176;2023-12-29T02:34:40;96838.41;;;7.81;83.69
80405;BME280;69733;48.744;9.176;2023-12-29T02:37:08;96832.09;;;7.82;83.87
80405;BME280;69733;48.744;9.176;2023-12-29T02:39:34;96830.47;;;7.81;84.20
80405;BME280;69733;48.744;9.176;2023-12-29T02:42:00;96834.94;;;7.80;84.20
80405;BME280;69733;48.744;9.176;2023-12-29T02:44:25;96826.78;;;7.82;83.82
80405;BME280;69733;48.744;9.176;2023-12-29T02:46:50;96831.28;;;7.81;83.71
80405;BME280;69733;48.744;9.176;2023-12-29T02:49:16;96816.19;;;7.82;84.10
80405;BME280;69733;48.744;9.176;2023-12-29T02:51:41;96819.47;;;7.77;84.23
80405;BME280;69733;48.744;9.176;2023-12-29T02:54:06;96819.28;;;7.72;84.53
80405;BME280;69733;48.744;9.176;2023-12-29T02:56:33;96813.38;;;7.70;84.26
80405;BME280;69733;48.744;9.176;2023-12-29T02:58:58;96811.97;;;7.68;84.36
80405;BME280;69733;48.744;9.176;2023-12-29T03:01:23;96814.63;;;7.68;84.33
80405;BME280;69733;48.744;9.176;2023-12-29T03:03:49;96814.63;;;7.68;84.44
80405;BME280;69733;48.744;9.176;2023-12-29T03:06:14;96820.50;;;7.70;84.21
80405;BME280;69733;48.744;9.176;2023-12-29T03:08:39;96803.81;;;7.69;84.41
80405;BME280;69733;48.744;9.176;2023-12-29T03:11:13;96798.09;;;7.72;84.43
80405;BME280;69733;48.744;9.176;2023-12-29T03:13:39;96804.00;;;7.74;84.38
80405;BME280;69733;48.744;9.176;2023-12-29T03:16:04;96807.91;;;7.72;84.20
80405;BME280;69733;48.744;9.176;2023-12-29T03:18:29;96806.66;;;7.74;84.38
80405;BME280;69733;48.744;9.176;2023-12-29T03:20:55;96789.75;;;7.69;84.20
80405;BME280;69733;48.744;9.176;2023-12-29T03:23:21;96796.28;;;7.66;84.59
80405;BME280;69733;48.744;9.176;2023-12-29T03:25:46;96797.13;;;7.60;84.45
80405;BME280;69733;48.744;9.176;2023-12-29T03:28:11;96789.38;;;7.59;84.36
80405;BME280;69733;48.744;9.176;2023-12-29T03:30:37;96784.75;;;7.54;84.54
80405;BME280;69733;48.744;9.176;2023-12-29T03:33:02;96787.59;;;7.53;84.88
80405;BME280;69733;48.744;9.176;2023-12-29T03:35:27;96786.78;;;7.45;84.79
80405;BME280;69733;48.744;9.176;2023-12-29T03:37:53;96781.94;;;7.42;85.11
80405;BME280;69733;48.744;9.176;2023-12-29T03:40:18;96778.06;;;7.38;84.91
80405;BME280;69733;48.744;9.176;2023-12-29T03:42:44;96774.81;;;7.36;84.92
80405;BME280;69733;48.744;9.176;2023-12-29T03:45:09;96780.31;;;7.35;84.65
80405;BME280;69733;48.744;9.176;2023-12-29T03:47:34;96776.69;;;7.29;85.22
80405;BME280;69733;48.744;9.176;2023-12-29T03:50:01;96778.72;;;7.27;85.24
80405;BME280;69733;48.744;9.176;2023-12-29T03:52:26;96775.63;;;7.30;84.98
80405;BME280;69733;48.744;9.176;2023-12-29T03:54:51;96782.38;;;7.26;85.06
80405;BME280;69733;48.744;9.176;2023-12-29T03:57:17;96780.56;;;7.20;85.36
80405;BME280;69733;48.744;9.176;2023-12-29T03:59:42;96780.38;;;7.15;85.36
80405;BME280;69733;48.744;9.176;2023-12-29T04:02:07;96773.25;;;7.09;85.40
80405;BME280;69733;48.744;9.176;2023-12-29T04:04:37;96774.09;;;7.03;85.50
80405;BME280;69733;48.744;9.176;2023-12-29T04:07:02;96792.19;;;6.99;85.32
80405;BME280;69733;48.744;9.176;2023-12-29T04:09:27;96787.31;;;6.96;85.19
80405;BME280;69733;48.744;9.176;2023-12-29T04:11:53;96776.53;;;6.98;85.27
80405;BME280;69733;48.744;9.176;2023-12-29T04:14:18;96783.44;;;6.99;85.45
80405;BME280;69733;48.744;9.176;2023-12-29T04:16:43;96776.94;;;6.95;85.25
80405;BME280;69733;48.744;9.176;2023-12-29T04:19:09;96770.44;;;6.91;85.50
80405;BME280;69733;48.744;9.176;2023-12-29T04:21:34;96770.84;;;6.88;85.32
80405;BME280;69733;48.744;9.176;2023-12-29T04:23:59;96774.72;;;6.85;85.31
80405;BME280;69733;48.744;9.176;2023-12-29T04:26:25;96789.78;;;6.85;85.30
80405;BME280;69733;48.744;9.176;2023-12-29T04:28:50;96777.78;;;6.89;85.20
80405;BME280;69733;48.744;9.176;2023-12-29T04:31:15;96785.50;;;6.97;85.04
80405;BME280;69733;48.744;9.176;2023-12-29T04:33:40;96780.38;;;7.02;84.90
80405;BME280;69733;48.744;9.176;2023-12-29T04:36:06;96789.53;;;7.06;84.54
80405;BME280;69733;48.744;9.176;2023-12-29T04:38:31;96792.00;;;7.08;84.79
80405;BME280;69733;48.744;9.176;2023-12-29T04:40:56;96773.25;;;7.09;84.60
80405;BME280;69733;48.744;9.176;2023-12-29T04:43:22;96776.13;;;7.08;84.86
80405;BME280;69733;48.744;9.176;2023-12-29T04:45:47;96778.38;;;7.04;84.70
80405;BME280;69733;48.744;9.176;2023-12-29T04:48:12;96785.91;;;7.00;84.96
80405;BME280;69733;48.744;9.176;2023-12-29T04:50:38;96793.03;;;7.00;85.17
80405;BME280;69733;48.744;9.176;2023-12-29T04:53:03;96783.25;;;7.00;85.12
80405;BME280;69733;48.744;9.176;2023-12-29T04:55:28;96799.13;;;7.00;84.84
80405;BME280;69733;48.744;9.176;2023-12-29T04:57:54;96794.25;;;7.04;84.77
80405;BME280;69733;48.744;9.176;2023-12-29T05:00:19;96793.81;;;7.07;85.01
80405;BME280;69733;48.744;9.176;2023-12-29T05:02:44;96785.25;;;7.05;84.55
80405;BME280;69733;48.744;9.176;2023-12-29T05:05:13;96791.38;;;7.06;84.84
80405;BME280;69733;48.744;9.176;2023-12-29T05:07:38;96793.59;;;7.09;85.05
80405;BME280;69733;48.744;9.176;2023-12-29T05:10:04;96789.34;;;7.08;85.01
80405;BME280;69733;48.744;9.176;2023-12-29T05:12:29;96791.78;;;7.09;84.80
80405;BME280;69733;48.744;9.176;2023-12-29T05:14:55;96792.41;;;7.11;85.00
80405;BME280;69733;48.744;9.176;2023-12-29T05:17:20;96792.16;;;7.13;84.71
80405;BME280;69733;48.744;9.176;2023-12-29T05:19:45;96795.22;;;7.16;84.91
80405;BME280;69733;48.744;9.176;2023-12-29T05:22:11;96788.72;;;7.19;84.71
80405;BME280;69733;48.744;9.176;2023-12-29T05:24:40;96795.19;;;7.23;84.59
80405;BME280;69733;48.744;9.176;2023-12-29T05:27:05;96798.88;;;7.22;85.00
80405;BME280;69733;48.744;9.176;2023-12-29T05:29:31;96795.41;;;7.21;84.81
80405;BME280;69733;48.744;9.176;2023-12-29T05:31:56;96791.75;;;7.22;84.98
80405;BME280;69733;48.744;9.176;2023-12-29T05:34:21;96790.31;;;7.26;84.75
80405;BME280;69733;48.744;9.176;2023-12-29T05:36:47;96789.50;;;7.26;85.01
80405;BME280;69733;48.744;9.176;2023-12-29T05:39:12;96785.00;;;7.26;84.91
80405;BME280;69733;48.744;9.176;2023-12-29T05:41:37;96792.16;;;7.26;85.22
80405;BME280;69733;48.744;9.176;2023-12-29T05:44:03;96794.41;;;7.22;84.85
80405;BME280;69733;48.744;9.176;2023-12-29T05:46:28;96791.13;;;7.20;85.35
80405;BME280;69733;48.744;9.176;2023-12-29T05:48:54;96786.47;;;7.22;85.49
80405;BME280;69733;48.744;9.176;2023-12-29T05:51:19;96798.06;;;7.21;85.31
80405;BME280;69733;48.744;9.176;2023-12-29T05:53:45;96797.44;;;7.19;85.59
80405;BME280;69733;48.744;9.176;2023-12-29T05:56:14;96794.19;;;7.17;85.42
80405;BME280;69733;48.744;9.176;2023-12-29T05:58:41;96789.91;;;7.16;85.44
80405;BME280;69733;48.744;9.176;2023-12-29T06:01:07;96796.84;;;7.17;85.16
80405;BME280;69733;48.744;9.176;2023-12-29T06:03:32;96798.91;;;7.15;85.66
80405;BME280;69733;48.744;9.176;2023-12-29T06:05:57;96793.22;;;7.12;85.96
80405;BME280;69733;48.744;9.176;2023-12-29T06:08:23;96804.38;;;7.14;85.60
80405;BME280;69733;48.744;9.176;2023-12-29T06:10:49;96806.63;;;7.17;85.84
80405;BME280;69733;48.744;9.176;2023-12-29T06:13:14;96804.97;;;7.16;85.84
80405;BME280;69733;48.744;9.176;2023-12-29T06:15:40;96809.06;;;7.18;85.59
80405;BME280;69733;48.744;9.176;2023-12-29T06:18:05;96808.66;;;7.21;85.50
80405;BME280;69733;48.744;9.176;2023-12-29T06:20:30;96813.13;;;7.21;85.68
80405;BME280;69733;48.744;9.176;2023-12-29T06:22:56;96813.13;;;7.21;85.83
80405;BME280;69733;48.744;9.176;2023-12-29T06:25:21;96812.94;;;7.22;85.46
80405;BME280;69733;48.744;9.176;2023-12-29T06:27:46;96810.47;;;7.21;85.87
80405;BME280;69733;48.744;9.176;2023-12-29T06:30:12;96796.66;;;7.19;85.86
80405;BME280;69733;48.744;9.176;2023-12-29T06:32:38;96806.63;;;7.17;86.32
80405;BME280;69733;48.744;9.176;2023-12-29T06:35:04;96801.56;;;7.15;86.40
80405;BME280;69733;48.744;9.176;2023-12-29T06:37:30;96802.56;;;7.14;86.26
80405;BME280;69733;48.744;9.176;2023-12-29T06:39:56;96799.69;;;7.16;86.36
80405;BME280;69733;48.744;9.176;2023-12-29T06:42:21;96799.06;;;7.20;86.07
80405;BME280;69733;48.744;9.176;2023-12-29T06:44:47;96789.28;;;7.27;85.93
80405;BME280;69733;48.744;9.176;2023-12-29T06:47:13;96783.81;;;7.29;85.75
80405;BME280;69733;48.744;9.176;2023-12-29T06:49:39;96772.59;;;7.27;85.90
80405;BME280;69733;48.744;9.176;2023-12-29T06:52:04;96774.44;;;7.26;86.00
80405;BME280;69733;48.744;9.176;2023-12-29T06:54:30;96790.13;;;7.21;86.06
80405;BME280;69733;48.744;9.176;2023-12-29T06:56:55;96788.09;;;7.17;86.39
80405;BME280;69733;48.744;9.176;2023-12-29T06:59:22;96787.91;;;7.12;86.56
80405;BME280;69733;48.744;9.176;2023-12-29T07:01:47;96791.34;;;7.12;86.56
80405;BME280;69733;48.744;9.176;2023-12-29T07:04:13;96792.41;;;7.11;86.75
80405;BME280;69733;48.744;9.176;2023-12-29T07:06:38;96793.63;;;7.15;86.49
80405;BME280;69733;48.744;9.176;2023-12-29T07:09:04;96788.09;;;7.17;86.70
80405;BME280;69733;48.744;9.176;2023-12-29T07:11:30;96782.59;;;7.18;86.42
80405;BME280;69733;48.744;9.176;2023-12-29T07:13:55;96795.84;;;7.18;86.49
80405;BME280;69733;48.744;9.176;2023-12-29T07:16:20;96798.25;;;7.20;86.58
80405;BME280;69733;48.744;9.176;2023-12-29T07:18:46;96795.41;;;7.21;86.56
80405;BME280;69733;48.744;9.176;2023-12-29T07:21:12;96792.34;;;7.24;86.36
80405;BME280;69733;48.744;9.176;2023-12-29T07:23:41;96798.63;;;7.30;86.24
80405;BME280;69733;48.744;9.176;2023-12-29T07:26:06;96791.53;;;7.30;86.43
80405;BME280;69733;48.744;9.176;2023-12-29T07:28:32;96785.41;;;7.30;86.49
80405;BME280;69733;48.744;9.176;2023-12-29T07:30:58;96797.84;;;7.29;86.38
80405;BME280;69733;48.744;9.176;2023-12-29T07:33:23;96788.28;;;7.28;86.54
80405;BME280;69733;48.744;9.176;2023-12-29T07:35:49;96789.91;;;7.29;86.48
80405;BME280;69733;48.744;9.176;2023-12-29T07:38:15;96787.66;;;7.33;86.65
80405;BME280;69733;48.744;9.176;2023-12-29T07:40:40;96785.81;;;7.33;86.35
80405;BME280;69733;48.744;9.176;2023-12-29T07:43:06;96784.38;;;7.37;86.10
80405;BME280;69733;48.744;9.176;2023-12-29T07:45:31;96782.13;;;7.41;86.52
80405;BME280;69733;48.744;9.176;2023-12-29T07:47:56;96787.63;;;7.46;86.22
80405;BME280;69733;48.744;9.176;2023-12-29T07:50:22;96791.25;;;7.51;86.53
80405;BME280;69733;48.744;9.176;2023-12-29T07:52:47;96784.50;;;7.56;86.10
80405;BME280;69733;48.744;9.176;2023-12-29T07:55:13;96784.31;;;7.57;86.08
80405;BME280;69733;48.744;9.176;2023-12-29T07:57:41;96781.44;;;7.59;86.23
80405;BME280;69733;48.744;9.176;2023-12-29T08:00:07;96786.31;;;7.62;86.16
80405;BME280;69733;48.744;9.176;2023-12-29T08:02:32;96798.13;;;7.66;86.06
80405;BME280;69733;48.744;9.176;2023-12-29T08:04:58;96796.69;;;7.70;85.84
80405;BME280;69733;48.744;9.176;2023-12-29T08:07:23;96794.44;;;7.73;85.91
80405;BME280;69733;48.744;9.176;2023-12-29T08:09:49;96792.16;;;7.77;86.28
80405;BME280;69733;48.744;9.176;2023-12-29T08:12:14;96795.44;;;7.79;86.17
80405;BME280;69733;48.744;9.176;2023-12-29T08:14:39;96790.72;;;7.81;86.17
80405;BME280;69733;48.744;9.176;2023-12-29T08:17:05;96800.31;;;7.82;86.03
80405;BME280;69733;48.744;9.176;2023-12-29T08:19:32;96796.66;;;7.83;86.76
80405;BME280;69733;48.744;9.176;2023-12-29T08:21:57;96800.47;;;7.87;86.25
80405;BME280;69733;48.744;9.176;2023-12-29T08:24:22;96798.63;;;7.87;86.22
80405;BME280;69733;48.744;9.176;2023-12-29T08:26:48;96797.63;;;7.88;86.72
80405;BME280;69733;48.744;9.176;2023-12-29T08:29:14;96811.25;;;7.92;86.30
80405;BME280;69733;48.744;9.176;2023-12-29T08:31:40;96805.34;;;7.96;86.32
80405;BME280;69733;48.744;9.176;2023-12-29T08:34:05;96804.28;;;7.97;86.20
80405;BME280;69733;48.744;9.176;2023-12-29T08:36:31;96803.66;;;8.02;86.35
80405;BME280;69733;48.744;9.176;2023-12-29T08:38:56;96801.63;;;8.04;86.30
80405;BME280;69733;48.744;9.176;2023-12-29T08:41:22;96811.38;;;8.10;86.43
80405;BME280;69733;48.744;9.176;2023-12-29T08:43:47;96800.16;;;8.08;86.38
80405;BME280;69733;48.744;9.176;2023-12-29T08:46:12;96804.00;;;8.12;85.98
80405;BME280;69733;48.744;9.176;2023-12-29T08:48:38;96800.16;;;8.15;85.96
80405;BME280;69733;48.744;9.176;2023-12-29T08:51:03;96803.97;;;8.19;86.24
80405;BME280;69733;48.744;9.176;2023-12-29T08:53:29;96807.00;;;8.22;86.31
80405;BME280;69733;48.744;9.176;2023-12-29T08:55:58;96807.38;;;8.26;86.18
80405;BME280;69733;48.744;9.176;2023-12-29T08:58:23;96811.50;;;8.28;86.10
80405;BME280;69733;48.744;9.176;2023-12-29T09:00:49;96807.19;;;8.27;86.01
80405;BME280;69733;48.744;9.176;2023-12-29T09:03:14;96810.28;;;8.24;86.63
80405;BME280;69733;48.744;9.176;2023-12-29T09:05:39;96803.34;;;8.23;87.00
80405;BME280;69733;48.744;9.176;2023-12-29T09:08:05;96810.47;;;8.23;87.05
80405;BME280;69733;48.744;9.176;2023-12-29T09:10:30;96811.53;;;8.22;87.04
80405;BME280;69733;48.744;9.176;2023-12-29T09:12:55;96802.75;;;8.21;86.93
80405;BME280;69733;48.744;9.176;2023-12-29T09:15:21;96805.78;;;8.25;87.04
80405;BME280;69733;48.744;9.176;2023-12-29T09:17:46;96811.06;;;8.31;86.84
80405;BME280;69733;48.744;9.176;2023-12-29T09:20:11;96803.94;;;8.32;86.87
80405;BME280;69733;48.744;9.176;2023-12-29T09:22:37;96804.91;;;8.37;86.87
80405;BME280;69733;48.744;9.176;2023-12-29T09:25:03;96809.34;;;8.43;86.57
80405;BME280;69733;48.744;9.176;2023-12-29T09:27:29;96808.84;;;8.60;86.08
80405;BME280;69733;48.744;9.176;2023-12-29T09:29:54;96817.72;;;8.72;85.93
80405;BME280;69733;48.744;9.176;2023-12-29T09:32:19;96815.03;;;8.78;85.78
80405;BME280;69733;48.744;9.176;2023-12-29T09:34:44;96820.03;;;8.86;85.51
80405;BME280;69733;48.744;9.176;2023-12-29T09:37:10;96815.41;;;8.82;86.21
80405;BME280;69733;48.744;9.176;2023-12-29T09:39:35;96822.13;;;8.84;86.04
80405;BME280;69733;48.744;9.176;2023-12-29T09:42:01;96824.13;;;8.89;86.41
80405;BME280;69733;48.744;9.176;2023-12-29T09:44:30;96828.63;;;8.88;86.19
80405;BME280;69733;48.744;9.176;2023-12-29T09:47:00;96816.38;;;8.87;86.21
80405;BME280;69733;48.744;9.176;2023-12-29T09:49:27;96815.56;;;8.87;86.37
80405;BME280;69733;48.744;9.176;2023-12-29T09:51:57;96829.44;;;8.89;86.49
80405;BME280;69733;48.744;9.176;2023-12-29T09:54:23;96816.94;;;8.89;86.60
80405;BME280;69733;48.744;9.176;2023-12-29T09:56:49;96833.94;;;8.88;86.68
80405;BME280;69733;48.744;9.176;2023-12-29T09:59:16;96831.84;;;8.90;86.38
80405;BME280;69733;48.744;9.176;2023-12-29T10:01:44;96830.97;;;8.96;86.50
80405;BME280;69733;48.744;9.176;2023-12-29T10:04:10;96829.44;;;8.89;86.73
80405;BME280;69733;48.744;9.176;2023-12-29T10:06:36;96827.38;;;8.91;86.73
80405;BME280;69733;48.744;9.176;2023-12-29T10:09:04;96829.63;;;8.87;86.82
80405;BME280;69733;48.744;9.176;2023-12-29T10:11:34;96831.72;;;8.85;86.96
80405;BME280;69733;48.744;9.176;2023-12-29T10:14:05;96825.59;;;8.85;87.00
80405;BME280;69733;48.744;9.176;2023-12-29T10:16:45;96824.13;;;8.89;86.73
80405;BME280;69733;48.744;9.176;2023-12-29T10:19:37;96811.00;;;8.94;86.70
80405;BME280;69733;48.744;9.176;2023-12-29T10:22:26;96826.50;;;8.97;86.70
80405;BME280;69733;48.744;9.176;2023-12-29T10:24:56;96813.84;;;8.99;86.66
80405;BME280;69733;48.744;9.176;2023-12-29T10:27:22;96812.56;;;9.02;86.55
80405;BME280;69733;48.744;9.176;2023-12-29T10:29:48;96810.94;;;9.00;86.77
80405;BME280;69733;48.744;9.176;2023-12-29T10:32:13;96810.28;;;9.05;86.51
80405;BME280;69733;48.744;9.176;2023-12-29T10:34:38;96804.34;;;9.10;86.76
80405;BME280;69733;48.744;9.176;2023-12-29T10:37:04;96805.16;;;9.10;86.31
80405;BME280;69733;48.744;9.176;2023-12-29T10:39:34;96798.16;;;9.16;86.46
80405;BME280;69733;48.744;9.176;2023-12-29T10:42:05;96798.53;;;9.19;86.46
80405;BME280;69733;48.744;9.176;2023-12-29T10:44:31;96794.84;;;9.20;86.50
80405;BME280;69733;48.744;9.176;2023-12-29T10:46:57;96793.78;;;9.21;86.45
80405;BME280;69733;48.744;9.176;2023-12-29T10:49:22;96782.75;;;9.24;86.48
80405;BME280;69733;48.744;9.176;2023-12-29T10:51:48;96787.00;;;9.25;86.53
80405;BME280;69733;48.744;9.176;2023-12-29T10:54:20;96783.13;;;9.28;86.74
80405;BME280;69733;48.744;9.176;2023-12-29T10:57:01;96775.16;;;9.28;86.45
80405;BME280;69733;48.744;9.176;2023-12-29T10:59:27;96769.03;;;9.27;86.42
80405;BME280;69733;48.744;9.176;2023-12-29T11:01:53;96765.56;;;9.27;86.54
80405;BME280;69733;48.744;9.176;2023-12-29T11:04:22;96759.00;;;9.29;86.38
80405;BME280;69733;48.744;9.176;2023-12-29T11:06:47;96764.31;;;9.29;86.70
80405;BME280;69733;48.744;9.176;2023-12-29T11:09:13;96756.78;;;9.26;86.87
80405;BME280;69733;48.744;9.176;2023-12-29T11:11:39;96766.16;;;9.29;86.74
80405;BME280;69733;48.744;9.176;2023-12-29T11:14:05;96758.41;;;9.27;86.76
80405;BME280;69733;48.744;9.176;2023-12-29T11:16:31;96755.09;;;9.32;86.60
80405;BME280;69733;48.744;9.176;2023-12-29T11:18:58;96746.09;;;9.33;86.57
80405;BME280;69733;48.744;9.176;2023-12-29T11:21:26;96754.28;;;9.31;86.61
80405;BME280;69733;48.744;9.176;2023-12-29T11:23:51;96748.31;;;9.36;86.74
80405;BME280;69733;48.744;9.176;2023-12-29T11:26:18;96751.78;;;9.36;86.57
80405;BME280;69733;48.744;9.176;2023-12-29T11:28:46;96738.03;;;9.39;86.13
80405;BME280;69733;48.744;9.176;2023-12-29T11:31:11;96734.53;;;9.45;86.00
80405;BME280;69733;48.744;9.176;2023-12-29T11:33:43;96736.94;;;9.47;86.34
80405;BME280;69733;48.744;9.176;2023-12-29T11:36:18;96735.09;;;9.47;86.26
80405;BME280;69733;48.744;9.176;2023-12-29T11:41:43;96737.03;;;9.40;86.64
80405;BME280;69733;48.744;9.176;2023-12-29T11:44:12;96741.31;;;9.41;86.31
80405;BME280;69733;48.744;9.176;2023-12-29T11:46:42;96745.44;;;9.37;86.67
80405;BME280;69733;48.744;9.176;2023-12-29T11:49:08;96731.25;;;9.43;86.53
80405;BME280;69733;48.744;9.176;2023-12-29T11:51:44;96731.25;;;9.43;86.54
80405;BME280;69733;48.744;9.176;2023-12-29T11:54:32;96741.44;;;9.46;86.72
80405;BME280;69733;48.744;9.176;2023-12-29T11:56:58;96728.97;;;9.47;86.46
80405;BME280;69733;48.744;9.176;2023-12-29T11:59:25;96724.47;;;9.47;86.42
80405;BME280;69733;48.744;9.176;2023-12-29T12:01:54;96730.34;;;9.49;86.28
80405;BME280;69733;48.744;9.176;2023-12-29T12:04:34;96725.06;;;9.49;86.49
80405;BME280;69733;48.744;9.176;2023-12-29T12:07:01;96725.00;;;9.56;86.24
80405;BME280;69733;48.744;9.176;2023-12-29T12:09:27;96721.19;;;9.64;85.91
80405;BME280;69733;48.744;9.176;2023-12-29T12:11:52;96715.00;;;9.70;85.86
80405;BME280;69733;48.744;9.176;2023-12-29T12:14:46;96723.78;;;9.70;85.84
80405;BME280;69733;48.744;9.176;2023-12-29T12:17:12;96711.75;;;9.68;86.22
80405;BME280;69733;48.744;9.176;2023-12-29T12:19:52;96711.38;;;9.64;86.67
80405;BME280;69733;48.744;9.176;2023-12-29T12:22:19;96695.09;;;9.61;86.37
80405;BME280;69733;48.744;9.176;2023-12-29T12:24:46;96701.81;;;9.63;86.45
80405;BME280;69733;48.744;9.176;2023-12-29T12:27:12;96701.00;;;9.63;86.35
80405;BME280;69733;48.744;9.176;2023-12-29T12:29:37;96697.38;;;9.57;86.73
80405;BME280;69733;48.744;9.176;2023-12-29T12:32:03;96697.81;;;9.54;86.62
80405;BME280;69733;48.744;9.176;2023-12-29T12:34:36;96683.44;;;9.62;86.48
80405;BME280;69733;48.744;9.176;2023-12-29T12:37:02;96687.84;;;9.68;86.42
80405;BME280;69733;48.744;9.176;2023-12-29T12:39:39;96688.88;;;9.67;86.36
80405;BME280;69733;48.744;9.176;2023-12-29T12:42:05;96686.34;;;9.72;86.19
80405;BME280;69733;48.744;9.176;2023-12-29T12:44:30;96684.28;;;9.74;86.24
80405;BME280;69733;48.744;9.176;2023-12-29T12:46:58;96680.38;;;9.76;86.26
80405;BME280;69733;48.744;9.176;2023-12-29T12:49:24;96679.69;;;9.81;86.14
80405;BME280;69733;48.744;9.176;2023-12-29T12:51:49;96677.63;;;9.83;86.04
80405;BME280;69733;48.744;9.176;2023-12-29T12:54:19;96679.50;;;9.94;85.91
80405;BME280;69733;48.744;9.176;2023-12-29T12:56:48;96674.09;;;10.00;85.30
80405;BME280;69733;48.744;9.176;2023-12-29T12:59:14;96677.25;;;10.09;85.33
80405;BME280;69733;48.744;9.176;2023-12-29T13:01:39;96677.63;;;10.24;84.89
80405;BME280;69733;48.744;9.176;2023-12-29T13:04:06;96684.25;;;10.33;84.65
80405;BME280;69733;48.744;9.176;2023-12-29T13:06:32;96679.81;;;10.27;85.21
80405;BME280;69733;48.744;9.176;2023-12-29T13:09:02;96687.13;;;10.32;85.13